Time;durP1;ratioP1;P1;durP2;ratioP2;P2;SDS_P1;SDS_P2;PMS_P1;PMS_P2;Temp;Humidity;BMP_temperature;BMP_pressure;BME280_temperature;BME280_humidity;BME280_pressure;Samples;Min_cycle;Max_cycle;Signal;HPM_P1;HPM_P2
2023/05/11 00:01:20;;;;;;;;;;;19.20;70.00;;;;;;10550741;27;89026;-65
2023/05/11 00:06:22;;;;;;;;;;;19.20;70.00;;;;;;10550663;27;89030;-65
2023/05/11 00:11:23;;;;;;;;;;;19.20;70.00;;;;;;10551839;27;88412;-65
2023/05/11 00:16:25;;;;;;;;;;;19.20;70.00;;;;;;10550782;27;90083;-65
2023/05/11 00:21:27;;;;;;;;;;;19.20;70.00;;;;;;10550946;27;89203;-65
2023/05/11 00:26:29;;;;;;;;;;;19.20;70.10;;;;;;10550507;27;89843;-65
2023/05/11 00:31:31;;;;;;;;;;;19.20;70.10;;;;;;10531687;27;90116;-65
2023/05/11 00:36:33;;;;;;;;;;;19.10;70.10;;;;;;10549271;27;88822;-65
2023/05/11 00:41:35;;;;;;;;;;;19.10;70.00;;;;;;10529889;27;89061;-65
2023/05/11 00:46:37;;;;;;;;;;;19.10;70.00;;;;;;10549006;27;88132;-65
2023/05/11 00:51:39;;;;;;;;;;;19.10;70.00;;;;;;10529364;27;89273;-65
2023/05/11 00:56:41;;;;;;;;;;;19.10;70.00;;;;;;10549780;27;89970;-64
2023/05/11 01:01:43;;;;;;;;;;;19.20;70.00;;;;;;10548942;27;88949;-65
2023/05/11 01:06:54;;;;;;;;;;;19.20;70.00;;;;;;10529257;27;90233;-64
2023/05/11 01:12:02;;;;;;;;;;;19.20;70.00;;;;;;10548940;27;90069;-64
2023/05/11 01:17:09;;;;;;;;;;;19.10;69.80;;;;;;10547504;27;90119;-64
2023/05/11 01:22:34;;;;;;;;;;;19.10;69.80;;;;;;10548164;27;89997;-65
2023/05/11 01:27:36;;;;;;;;;;;19.20;69.90;;;;;;10498964;27;88935;-65
2023/05/11 01:32:39;;;;;;;;;;;19.20;69.80;;;;;;10528276;27;89444;-65
2023/05/11 01:37:46;;;;;;;;;;;19.10;69.70;;;;;;10546879;27;89039;-65
2023/05/11 01:42:50;;;;;;;;;;;19.20;69.80;;;;;;10547126;27;90112;-63
2023/05/11 01:47:52;;;;;;;;;;;19.20;69.80;;;;;;10546258;27;88758;-65
2023/05/11 01:52:54;;;;;;;;;;;19.20;69.60;;;;;;10547639;27;89355;-65
2023/05/11 01:57:56;;;;;;;;;;;19.20;69.60;;;;;;10546482;27;88899;-65
2023/05/11 02:02:59;;;;;;;;;;;19.20;69.60;;;;;;10546653;27;89698;-65
2023/05/11 02:08:02;;;;;;;;;;;19.20;69.50;;;;;;10526516;27;89748;-65
2023/05/11 02:13:04;;;;;;;;;;;19.20;69.50;;;;;;10546693;27;88933;-64
2023/05/11 02:18:08;;;;;;;;;;;19.20;69.50;;;;;;10545742;27;88858;-65
2023/05/11 02:23:10;;;;;;;;;;;19.20;69.50;;;;;;10545384;27;89051;-65
2023/05/11 02:28:11;;;;;;;;;;;19.20;69.40;;;;;;10545728;27;90444;-64
2023/05/11 02:33:16;;;;;;;;;;;19.20;69.40;;;;;;10546094;27;89841;-64
2023/05/11 02:38:18;;;;;;;;;;;19.20;69.50;;;;;;10526881;27;89086;-64
2023/05/11 02:43:22;;;;;;;;;;;19.20;69.40;;;;;;10527642;27;90543;-64
2023/05/11 02:48:26;;;;;;;;;;;19.20;69.50;;;;;;10542917;27;89558;-64
2023/05/11 02:53:28;;;;;;;;;;;19.20;69.50;;;;;;10544693;27;90177;-64
2023/05/11 02:58:34;;;;;;;;;;;19.10;69.40;;;;;;10526259;27;89352;-64
2023/05/11 03:03:36;;;;;;;;;;;19.10;69.60;;;;;;10525746;27;88139;-65
2023/05/11 03:08:38;;;;;;;;;;;19.10;69.50;;;;;;10544096;27;88914;-64
2023/05/11 03:13:43;;;;;;;;;;;19.10;69.50;;;;;;10545299;27;88926;-64
2023/05/11 03:18:44;;;;;;;;;;;19.10;69.60;;;;;;10544487;27;90070;-64
2023/05/11 03:23:46;;;;;;;;;;;19.10;69.60;;;;;;10544318;27;90265;-65
2023/05/11 03:28:49;;;;;;;;;;;19.10;69.60;;;;;;10524470;27;89945;-64
2023/05/11 03:33:51;;;;;;;;;;;19.10;69.70;;;;;;10543751;27;88489;-64
2023/05/11 03:38:55;;;;;;;;;;;19.00;69.50;;;;;;10542576;27;88805;-64
2023/05/11 03:43:58;;;;;;;;;;;19.00;69.50;;;;;;10542858;27;89099;-64
2023/05/11 05:07:14;;;;;;;;;;;18.90;69.60;;;;;;10418717;28;90051;-64
2023/05/11 05:12:16;;;;;;;;;;;18.90;69.80;;;;;;10401950;28;88196;-64
2023/05/11 05:17:17;;;;;;;;;;;18.90;69.90;;;;;;10420682;28;90038;-64
2023/05/11 05:22:20;;;;;;;;;;;18.90;70.00;;;;;;10421419;28;89887;-64
2023/05/11 05:27:21;;;;;;;;;;;18.90;70.00;;;;;;10420304;28;90151;-64
2023/05/11 05:32:23;;;;;;;;;;;18.90;70.00;;;;;;10420726;28;88349;-64
2023/05/11 05:37:25;;;;;;;;;;;18.90;69.90;;;;;;10402758;28;90178;-64
2023/05/11 05:42:27;;;;;;;;;;;19.00;70.00;;;;;;10419912;28;88814;-64
2023/05/11 05:47:28;;;;;;;;;;;19.00;70.00;;;;;;10416553;27;89741;-64
2023/05/11 05:52:30;;;;;;;;;;;19.00;70.00;;;;;;10419802;28;89603;-64
2023/05/11 05:57:32;;;;;;;;;;;19.00;70.20;;;;;;10419228;28;89820;-64
2023/05/11 06:02:34;;;;;;;;;;;19.00;70.20;;;;;;10418195;28;88993;-64
2023/05/11 06:07:36;;;;;;;;;;;19.00;70.30;;;;;;10416588;28;89065;-64
2023/05/11 06:12:38;;;;;;;;;;;19.00;70.60;;;;;;10415454;28;89187;-65
2023/05/11 06:17:40;;;;;;;;;;;19.00;71.20;;;;;;10408100;28;90106;-66
2023/05/11 06:22:42;;;;;;;;;;;19.10;72.10;;;;;;10406535;28;88494;-62
2023/05/11 06:27:44;;;;;;;;;;;19.10;72.10;;;;;;10394287;28;89082;-62
2023/05/11 06:32:45;;;;;;;;;;;19.20;72.00;;;;;;10413341;28;89880;-64
2023/05/11 06:37:48;;;;;;;;;;;19.20;71.90;;;;;;10413890;28;89810;-64
2023/05/11 06:42:49;;;;;;;;;;;19.20;71.80;;;;;;10416910;28;90375;-63
2023/05/11 06:47:51;;;;;;;;;;;19.30;71.90;;;;;;10407287;27;90548;-64
2023/05/11 06:52:53;;;;;;;;;;;19.30;71.80;;;;;;10404950;28;89191;-63
2023/05/11 06:57:54;;;;;;;;;;;19.30;71.80;;;;;;10403731;28;88955;-63
2023/05/11 07:02:56;;;;;;;;;;;19.30;71.80;;;;;;10402363;27;89207;-65
2023/05/11 07:07:58;;;;;;;;;;;19.30;71.90;;;;;;10397444;28;89147;-65
2023/05/11 07:12:59;;;;;;;;;;;19.30;72.20;;;;;;10417754;28;89246;-64
2023/05/11 07:18:01;;;;;;;;;;;19.40;72.10;;;;;;10397845;28;89995;-64
2023/05/11 07:23:03;;;;;;;;;;;19.40;72.10;;;;;;10415693;28;88791;-63
2023/05/11 07:28:05;;;;;;;;;;;19.40;72.10;;;;;;10414840;28;89695;-65
2023/05/11 07:33:07;;;;;;;;;;;19.40;72.00;;;;;;10378420;28;89165;-64
2023/05/11 07:38:10;;;;;;;;;;;19.50;72.00;;;;;;10402733;28;89588;-64
2023/05/11 07:43:12;;;;;;;;;;;19.50;72.00;;;;;;10415864;28;88917;-63
2023/05/11 07:48:14;;;;;;;;;;;19.50;71.90;;;;;;10396745;28;89056;-62
2023/05/11 07:53:15;;;;;;;;;;;19.60;72.00;;;;;;10414669;28;89872;-62
2023/05/11 07:58:17;;;;;;;;;;;19.60;71.90;;;;;;10414556;28;89977;-62
2023/05/11 08:03:19;;;;;;;;;;;19.60;71.90;;;;;;10414878;28;88258;-62
2023/05/11 08:08:21;;;;;;;;;;;19.60;71.80;;;;;;10396962;28;90303;-62
2023/05/11 08:13:22;;;;;;;;;;;19.50;72.10;;;;;;10419505;28;89217;-62
2023/05/11 08:18:24;;;;;;;;;;;19.50;72.20;;;;;;10411385;28;89305;-63
2023/05/11 08:23:26;;;;;;;;;;;19.50;72.20;;;;;;10422144;28;88227;-63
2023/05/11 08:28:28;;;;;;;;;;;19.50;72.30;;;;;;10404168;28;89056;-63
2023/05/11 08:33:30;;;;;;;;;;;19.40;72.20;;;;;;10403115;28;89295;-65
2023/05/11 08:38:39;;;;;;;;;;;19.40;72.50;;;;;;10421742;28;89296;-65
2023/05/11 08:43:42;;;;;;;;;;;19.50;72.60;;;;;;10387507;28;89282;-64
2023/05/11 08:48:44;;;;;;;;;;;19.50;73.00;;;;;;10379186;28;89811;-64
2023/05/11 08:53:45;;;;;;;;;;;19.50;73.80;;;;;;10380535;28;87928;-65
2023/05/11 08:58:48;;;;;;;;;;;19.60;73.90;;;;;;10378958;28;88395;-64
2023/05/11 09:03:50;;;;;;;;;;;19.60;73.80;;;;;;10378759;28;89066;-65
2023/05/11 09:08:52;;;;;;;;;;;19.60;74.00;;;;;;10399423;28;90850;-65
2023/05/11 09:13:54;;;;;;;;;;;19.60;73.70;;;;;;10421552;28;89085;-64
2023/05/11 09:18:58;;;;;;;;;;;19.60;73.70;;;;;;10420178;28;88357;-64
2023/05/11 09:24:01;;;;;;;;;;;19.60;73.50;;;;;;10419363;27;88993;-65
2023/05/11 09:29:03;;;;;;;;;;;19.60;73.50;;;;;;10421347;28;90074;-64
2023/05/11 09:34:09;;;;;;;;;;;19.60;73.50;;;;;;10420841;28;89409;-62
2023/05/11 09:39:12;;;;;;;;;;;19.60;73.50;;;;;;10402873;28;89781;-64
2023/05/11 09:44:17;;;;;;;;;;;19.60;73.40;;;;;;10419730;28;88420;-63
2023/05/11 09:49:27;;;;;;;;;;;19.60;73.20;;;;;;10401634;28;88471;-65
2023/05/11 09:54:29;;;;;;;;;;;19.60;72.90;;;;;;10419266;28;88765;-65
2023/05/11 09:59:40;;;;;;;;;;;19.60;73.30;;;;;;10418001;28;88948;-64
2023/05/11 10:04:42;;;;;;;;;;;19.70;72.60;;;;;;10417440;28;89357;-64
2023/05/11 10:09:44;;;;;;;;;;;19.70;72.60;;;;;;10418955;28;90342;-65
2023/05/11 10:14:47;;;;;;;;;;;19.70;72.30;;;;;;10418770;28;89386;-64
2023/05/11 10:19:49;;;;;;;;;;;19.70;72.30;;;;;;10401174;28;88974;-65
2023/05/11 10:24:51;;;;;;;;;;;19.70;72.30;;;;;;10401054;28;90117;-65
2023/05/11 10:29:53;;;;;;;;;;;19.70;72.20;;;;;;10400698;28;89223;-67
2023/05/11 10:34:55;;;;;;;;;;;19.70;72.00;;;;;;10400777;27;89124;-65
2023/05/11 10:39:56;;;;;;;;;;;19.80;72.00;;;;;;10418004;28;89700;-65
2023/05/11 10:45:16;;;;;;;;;;;19.80;72.00;;;;;;10418544;28;89631;-65
2023/05/11 10:50:24;;;;;;;;;;;19.80;71.80;;;;;;10387567;28;89915;-64
2023/05/11 10:55:35;;;;;;;;;;;19.80;71.70;;;;;;10376034;28;90051;-65
2023/05/11 11:00:52;;;;;;;;;;;19.70;71.70;;;;;;10375754;28;90172;-64
2023/05/11 11:05:54;;;;;;;;;;;19.80;71.60;;;;;;10376079;28;90001;-65
2023/05/11 11:10:56;;;;;;;;;;;19.70;71.50;;;;;;10376073;28;90109;-65
2023/05/11 11:15:59;;;;;;;;;;;19.80;71.50;;;;;;10340945;28;89886;-64
2023/05/11 11:21:03;;;;;;;;;;;19.80;71.50;;;;;;10375304;28;89106;-64
2023/05/11 11:26:05;;;;;;;;;;;19.80;71.30;;;;;;10375798;28;88325;-65
2023/05/11 11:31:26;;;;;;;;;;;19.80;71.40;;;;;;10375544;28;89826;-65
2023/05/11 11:36:47;;;;;;;;;;;19.80;71.40;;;;;;10356371;28;89020;-64
2023/05/11 11:42:02;;;;;;;;;;;19.80;72.30;;;;;;10355203;28;89350;-65
2023/05/11 11:47:11;;;;;;;;;;;19.80;71.10;;;;;;10356609;28;88790;-64
2023/05/11 11:52:13;;;;;;;;;;;19.80;71.10;;;;;;10416516;28;88703;-65
2023/05/11 11:57:33;;;;;;;;;;;19.80;71.00;;;;;;10416447;28;88346;-64
2023/05/11 12:02:39;;;;;;;;;;;19.80;71.00;;;;;;10416459;28;89286;-65
2023/05/11 12:07:42;;;;;;;;;;;19.80;71.00;;;;;;10415822;28;89117;-65
2023/05/11 12:12:44;;;;;;;;;;;19.80;71.00;;;;;;10415483;28;90015;-65
2023/05/11 12:17:45;;;;;;;;;;;19.80;71.00;;;;;;10415384;28;88153;-64
2023/05/11 12:22:48;;;;;;;;;;;19.80;70.90;;;;;;10415396;28;88885;-64
2023/05/11 12:27:50;;;;;;;;;;;19.80;70.80;;;;;;10414962;28;88128;-64
2023/05/11 12:32:52;;;;;;;;;;;19.80;70.80;;;;;;10414588;28;90422;-65
2023/05/11 12:37:58;;;;;;;;;;;19.80;70.80;;;;;;10414789;28;88552;-64
2023/05/11 12:43:00;;;;;;;;;;;19.80;70.80;;;;;;10414661;28;88922;-64
2023/05/11 12:48:03;;;;;;;;;;;19.80;70.80;;;;;;10405324;28;89539;-64
2023/05/11 12:53:14;;;;;;;;;;;19.80;70.60;;;;;;10373226;28;88867;-64
2023/05/11 12:58:17;;;;;;;;;;;19.80;70.60;;;;;;10374116;28;89005;-64
2023/05/11 13:03:20;;;;;;;;;;;19.80;70.60;;;;;;10379508;28;90738;-65
2023/05/11 13:08:22;;;;;;;;;;;19.80;70.70;;;;;;10381439;28;89234;-65
2023/05/11 13:13:27;;;;;;;;;;;19.80;70.70;;;;;;10380657;28;89698;-65
2023/05/11 13:18:28;;;;;;;;;;;19.80;70.50;;;;;;10379329;28;88206;-64
2023/05/11 13:23:30;;;;;;;;;;;19.80;70.60;;;;;;10360157;28;90753;-65
2023/05/11 13:28:32;;;;;;;;;;;19.80;70.60;;;;;;10379309;28;88746;-64
2023/05/11 13:33:34;;;;;;;;;;;19.80;70.50;;;;;;10361322;28;89358;-65
2023/05/11 13:38:36;;;;;;;;;;;19.80;70.50;;;;;;10360131;28;89320;-65
2023/05/11 13:43:37;;;;;;;;;;;19.70;70.40;;;;;;10378668;28;89627;-65
2023/05/11 13:48:39;;;;;;;;;;;19.70;70.50;;;;;;10392794;28;89680;-62
2023/05/11 13:53:41;;;;;;;;;;;19.70;70.70;;;;;;10419131;28;89593;-63
2023/05/11 13:58:42;;;;;;;;;;;19.70;70.70;;;;;;10403049;28;88910;-64
2023/05/11 14:03:44;;;;;;;;;;;19.70;70.70;;;;;;10401885;28;89942;-64
2023/05/11 14:08:46;;;;;;;;;;;19.60;70.70;;;;;;10418753;27;88113;-63
2023/05/11 14:13:47;;;;;;;;;;;19.60;70.70;;;;;;10399702;28;90147;-64
2023/05/11 14:18:49;;;;;;;;;;;19.60;70.70;;;;;;10419185;28;89959;-64
2023/05/11 14:23:51;;;;;;;;;;;19.60;70.70;;;;;;10419371;28;90424;-64
2023/05/11 14:29:11;;;;;;;;;;;19.60;70.70;;;;;;10418720;28;90420;-63
2023/05/11 14:34:13;;;;;;;;;;;19.60;70.70;;;;;;10418750;28;88925;-64
2023/05/11 14:39:15;;;;;;;;;;;19.60;70.80;;;;;;10417437;28;89204;-63
2023/05/11 14:44:16;;;;;;;;;;;19.60;70.80;;;;;;10417703;28;89021;-63
2023/05/11 14:49:18;;;;;;;;;;;19.60;70.70;;;;;;10418017;28;89288;-64
2023/05/11 14:54:20;;;;;;;;;;;19.60;70.70;;;;;;10417877;28;89881;-63
2023/05/11 14:59:23;;;;;;;;;;;19.60;70.80;;;;;;10417680;28;88797;-64
2023/05/11 15:04:25;;;;;;;;;;;19.60;70.80;;;;;;10416326;28;89816;-63
2023/05/11 15:09:27;;;;;;;;;;;19.60;70.80;;;;;;10415925;28;89013;-63
2023/05/11 15:14:29;;;;;;;;;;;19.60;70.80;;;;;;10417082;28;90210;-63
2023/05/11 15:19:30;;;;;;;;;;;19.60;70.70;;;;;;10416665;28;88369;-63
2023/05/11 15:24:32;;;;;;;;;;;19.60;70.70;;;;;;10416493;28;90191;-63
2023/05/11 15:29:34;;;;;;;;;;;19.60;70.80;;;;;;10415995;28;89166;-63
2023/05/11 15:34:36;;;;;;;;;;;19.60;70.70;;;;;;10399096;28;90042;-62
2023/05/11 15:39:51;;;;;;;;;;;19.60;70.70;;;;;;10417497;28;89289;-63
2023/05/11 15:44:53;;;;;;;;;;;19.60;70.70;;;;;;10417536;28;90124;-63
2023/05/11 15:49:55;;;;;;;;;;;19.60;70.70;;;;;;10416624;28;89153;-64
2023/05/11 15:54:57;;;;;;;;;;;19.60;70.70;;;;;;10396978;28;90657;-63
2023/05/11 15:59:59;;;;;;;;;;;19.60;70.70;;;;;;10416285;28;90229;-64
2023/05/11 16:05:00;;;;;;;;;;;19.70;71.00;;;;;;10416232;28;89086;-64
2023/05/11 16:10:02;;;;;;;;;;;19.80;72.60;;;;;;10413658;28;88967;-64
2023/05/11 16:15:04;;;;;;;;;;;19.90;73.80;;;;;;10416069;28;88812;-64
2023/05/11 16:20:06;;;;;;;;;;;20.00;74.10;;;;;;10397792;28;90039;-63
2023/05/11 16:25:08;;;;;;;;;;;20.20;74.80;;;;;;10398284;28;90510;-65
2023/05/11 16:30:10;;;;;;;;;;;20.50;76.80;;;;;;10412078;28;89101;-64
2023/05/11 16:35:24;;;;;;;;;;;20.90;75.40;;;;;;10379169;28;88521;-63
2023/05/11 16:40:26;;;;;;;;;;;20.90;74.50;;;;;;10380080;28;90085;-64
2023/05/11 16:45:27;;;;;;;;;;;21.00;74.00;;;;;;10380648;28;90722;-63
2023/05/11 16:50:29;;;;;;;;;;;20.90;73.60;;;;;;10409876;28;88937;-63
2023/05/11 16:55:31;;;;;;;;;;;20.90;73.70;;;;;;10422388;28;88686;-62
2023/05/11 17:00:32;;;;;;;;;;;20.80;73.60;;;;;;10421671;28;88546;-64
2023/05/11 17:05:35;;;;;;;;;;;20.70;73.60;;;;;;10420809;28;89010;-63
2023/05/11 17:10:36;;;;;;;;;;;20.60;73.70;;;;;;10421561;28;88973;-64
2023/05/11 17:15:38;;;;;;;;;;;20.50;73.60;;;;;;10420387;28;90100;-64
2023/05/11 17:20:40;;;;;;;;;;;20.50;73.80;;;;;;10422241;28;88294;-64
2023/05/11 17:25:41;;;;;;;;;;;20.50;73.90;;;;;;10421258;28;90087;-64
2023/05/11 17:30:45;;;;;;;;;;;20.40;73.90;;;;;;10419861;28;89408;-64
2023/05/11 17:35:50;;;;;;;;;;;20.40;74.00;;;;;;10419528;28;88770;-64
2023/05/11 17:40:51;;;;;;;;;;;20.40;74.00;;;;;;10419461;28;89052;-64
2023/05/11 17:45:53;;;;;;;;;;;20.30;74.00;;;;;;10419538;28;89138;-64
2023/05/11 17:50:58;;;;;;;;;;;20.30;73.90;;;;;;10419505;28;89112;-64
2023/05/11 17:55:59;;;;;;;;;;;20.30;74.00;;;;;;10419814;28;90060;-64
2023/05/11 18:01:08;;;;;;;;;;;20.30;74.10;;;;;;10416939;28;89112;-64
2023/05/11 18:06:10;;;;;;;;;;;20.30;73.80;;;;;;10420991;28;91877;-63
2023/05/11 18:11:12;;;;;;;;;;;20.20;73.70;;;;;;10402828;28;89274;-63
2023/05/11 18:16:15;;;;;;;;;;;20.20;73.70;;;;;;10400939;28;90090;-63
2023/05/11 18:21:17;;;;;;;;;;;20.20;73.90;;;;;;10418610;28;90156;-64
2023/05/11 18:26:20;;;;;;;;;;;20.20;74.00;;;;;;10417571;28;90809;-63
2023/05/11 18:31:22;;;;;;;;;;;20.20;74.00;;;;;;10417214;28;90325;-63
2023/05/11 18:36:23;;;;;;;;;;;20.20;74.00;;;;;;10415841;28;89715;-63
2023/05/11 18:41:26;;;;;;;;;;;20.20;74.00;;;;;;10399160;28;88822;-63
2023/05/11 18:46:27;;;;;;;;;;;20.20;74.20;;;;;;10414139;28;88892;-63
2023/05/11 18:51:29;;;;;;;;;;;20.20;74.20;;;;;;10417071;28;89100;-64
2023/05/11 18:56:31;;;;;;;;;;;20.20;74.10;;;;;;10417386;27;90154;-64
2023/05/11 19:01:33;;;;;;;;;;;20.20;74.20;;;;;;10418994;28;88083;-63
2023/05/11 19:06:47;;;;;;;;;;;20.20;74.10;;;;;;10416842;28;88961;-63
2023/05/11 19:11:49;;;;;;;;;;;20.20;74.00;;;;;;10400777;28;89017;-63
2023/05/11 19:16:51;;;;;;;;;;;20.20;74.00;;;;;;10415529;28;90571;-63
2023/05/11 19:21:53;;;;;;;;;;;20.20;74.10;;;;;;10416452;28;89978;-64
2023/05/11 19:26:54;;;;;;;;;;;20.10;73.90;;;;;;10399611;28;89997;-63
2023/05/11 19:32:10;;;;;;;;;;;20.10;73.90;;;;;;10416991;28;109359;-64
2023/05/11 19:37:12;;;;;;;;;;;20.10;73.90;;;;;;10417065;28;90026;-63
2023/05/11 19:42:13;;;;;;;;;;;20.00;73.80;;;;;;10416872;28;89911;-64
2023/05/11 19:47:16;;;;;;;;;;;20.00;73.70;;;;;;10415243;28;90047;-63
2023/05/11 19:52:18;;;;;;;;;;;20.00;73.70;;;;;;10418980;28;88382;-63
2023/05/11 19:57:20;;;;;;;;;;;20.00;73.70;;;;;;10417413;28;88879;-63
2023/05/11 20:02:21;;;;;;;;;;;20.00;73.70;;;;;;10416195;28;88595;-63
2023/05/11 20:07:23;;;;;;;;;;;20.00;73.60;;;;;;10397371;28;89828;-63
2023/05/11 20:12:25;;;;;;;;;;;20.00;73.40;;;;;;10423558;28;88586;-63
2023/05/11 20:17:26;;;;;;;;;;;19.90;73.50;;;;;;10422195;28;89174;-63
2023/05/11 20:22:29;;;;;;;;;;;19.90;73.50;;;;;;10423445;28;90186;-63
2023/05/11 20:27:31;;;;;;;;;;;19.90;73.50;;;;;;10422738;28;88844;-63
2023/05/11 20:32:36;;;;;;;;;;;19.90;73.40;;;;;;10423230;28;89149;-63
2023/05/11 20:37:38;;;;;;;;;;;19.80;73.20;;;;;;10422888;28;89414;-65
2023/05/11 20:42:40;;;;;;;;;;;19.80;73.10;;;;;;10423808;28;88474;-63
2023/05/11 20:47:41;;;;;;;;;;;19.80;73.10;;;;;;10421420;28;89225;-63
2023/05/11 20:52:43;;;;;;;;;;;19.80;73.00;;;;;;10421871;28;88738;-63
2023/05/11 20:57:45;;;;;;;;;;;19.70;72.90;;;;;;10402462;28;90298;-63
2023/05/11 21:02:47;;;;;;;;;;;19.70;72.80;;;;;;10403928;28;89031;-63
2023/05/11 21:07:48;;;;;;;;;;;19.70;72.70;;;;;;10422505;28;89108;-64
2023/05/11 21:12:50;;;;;;;;;;;19.60;72.60;;;;;;10420999;28;90272;-62
2023/05/11 21:17:52;;;;;;;;;;;19.60;72.50;;;;;;10421749;28;90021;-63
2023/05/11 21:22:54;;;;;;;;;;;19.60;72.50;;;;;;10420396;27;89219;-63
2023/05/11 21:27:55;;;;;;;;;;;19.60;72.30;;;;;;10420956;28;89156;-63
2023/05/11 21:32:57;;;;;;;;;;;19.60;72.30;;;;;;10423690;28;89117;-63
2023/05/11 21:37:59;;;;;;;;;;;19.60;72.10;;;;;;10419932;28;88688;-63
2023/05/11 21:43:00;;;;;;;;;;;19.60;72.10;;;;;;10401993;28;89066;-63
2023/05/11 21:48:02;;;;;;;;;;;19.50;71.90;;;;;;10419829;28;90333;-63
2023/05/11 21:53:04;;;;;;;;;;;19.60;71.80;;;;;;10419775;28;90014;-63
2023/05/11 21:58:06;;;;;;;;;;;19.60;71.70;;;;;;10401444;28;88947;-63
2023/05/11 22:03:07;;;;;;;;;;;19.60;71.70;;;;;;10420049;28;89123;-63
2023/05/11 22:08:09;;;;;;;;;;;19.60;71.60;;;;;;10419769;28;88967;-63
2023/05/11 22:13:16;;;;;;;;;;;19.50;71.40;;;;;;10420196;28;90226;-63
2023/05/11 22:18:18;;;;;;;;;;;19.50;71.30;;;;;;10418526;28;88722;-63
2023/05/11 22:23:20;;;;;;;;;;;19.50;71.20;;;;;;10420685;28;88051;-63
2023/05/11 22:28:21;;;;;;;;;;;19.50;71.10;;;;;;10418586;28;89120;-63
2023/05/11 22:33:23;;;;;;;;;;;19.50;71.10;;;;;;10419757;27;90699;-63
2023/05/11 22:38:25;;;;;;;;;;;19.50;70.90;;;;;;10418351;28;89835;-63
2023/05/11 22:43:27;;;;;;;;;;;19.50;71.00;;;;;;10418930;28;89152;-63
2023/05/11 22:48:29;;;;;;;;;;;19.50;70.80;;;;;;10417914;28;88635;-63
2023/05/11 22:53:31;;;;;;;;;;;19.50;70.60;;;;;;10419785;28;88362;-63
2023/05/11 22:58:33;;;;;;;;;;;19.50;70.90;;;;;;10417684;28;90250;-63
2023/05/11 23:03:34;;;;;;;;;;;19.50;70.60;;;;;;10400715;28;89710;-63
2023/05/11 23:08:36;;;;;;;;;;;19.50;70.50;;;;;;10399939;28;89441;-63
2023/05/11 23:13:38;;;;;;;;;;;19.50;70.50;;;;;;10418805;28;89371;-63
2023/05/11 23:18:42;;;;;;;;;;;19.50;70.50;;;;;;10417112;28;89557;-63
2023/05/11 23:23:44;;;;;;;;;;;19.40;70.50;;;;;;10417711;28;89065;-63
2023/05/11 23:28:46;;;;;;;;;;;19.40;70.40;;;;;;10416867;28;89827;-63
2023/05/11 23:33:48;;;;;;;;;;;19.40;70.50;;;;;;10417356;28;89848;-63
2023/05/11 23:38:49;;;;;;;;;;;19.40;70.40;;;;;;10417496;28;89888;-63
2023/05/11 23:43:51;;;;;;;;;;;19.40;70.40;;;;;;10415991;28;90018;-63
2023/05/11 23:48:53;;;;;;;;;;;19.40;70.40;;;;;;10415736;28;89317;-63
2023/05/11 23:53:55;;;;;;;;;;;19.30;70.30;;;;;;10416588;28;88855;-63
2023/05/11 23:58:57;;;;;;;;;;;19.30;70.30;;;;;;10416359;28;88884;-63
